Weather observations for the past three days for
Houston, Houston Hobby Airport
| Date | Time (cdt) | Wind (mph) | Vis. (mi.) | Weather | Sky Cond. | Temperature (ºF) | Relative Humidity | Wind Chill (°F) | Heat Index (°F) | Pressure | Precipitation (in) | ||||||
|---|---|---|---|---|---|---|---|---|---|---|---|---|---|---|---|---|---|
| Air | Dwpt | 6 hour | altimeter (in) | sea level (mb) | 1 hr | 3 hr | 6 hr | ||||||||||
| Max. | Min. | ||||||||||||||||
| 07 | 08:53 | N 14 | 10.00 | Overcast | BKN013 OVC020 | 66 | 60.1 | 81% | 29.98 | 1015.7 | |||||||
| 07 | 07:53 | N 13 | 10.00 | Overcast | OVC014 | 66 | 60.1 | 81% | 29.98 | 1015.8 | |||||||
| 07 | 06:53 | NE 12 | 8.00 | Overcast | BKN014 OVC020 | 66.9 | 61 | 72 | 66.9 | 81% | 29.94 | 1014.3 | |||||
| 07 | 05:53 | NE 10 | 7.00 | Overcast | BKN014 OVC020 | 68 | 63 | 84% | 29.92 | 1013.7 | |||||||
| 07 | 04:53 | NE 9 | 7.00 | Overcast | BKN014 OVC021 | 69.1 | 64 | 84% | 29.9 | 1013.0 | |||||||
| 07 | 03:53 | N 13 | 7.00 | Overcast | BKN015 OVC023 | 69.1 | 64 | 84% | 29.9 | 1013.0 | |||||||
| 07 | 02:53 | N 15 | 8.00 | Overcast | BKN016 OVC023 | 70 | 64 | 82% | 29.89 | 1012.7 | |||||||
| 07 | 01:53 | N 14 | 8.00 | Overcast | BKN017 OVC023 | 70 | 64 | 82% | 29.91 | 1013.2 | |||||||
| 07 | 00:53 | N 14 | 7.00 | Overcast | BKN015 OVC023 | 72 | 66 | 82 | 72 | 82% | 29.89 | 1012.6 | 0.01 | ||||
| 06 | 23:53 | N 10 | 6.00 | Overcast with Haze | BKN016 OVC023 | 73 | 68 | 84% | 29.89 | 1012.5 | |||||||
| 06 | 21:53 | S 3 | 7.00 | Mostly Cloudy | SCT010 BKN022 BKN090 | 79 | 75 | 88% | 83 | 29.84 | 1010.9 | ||||||
| 06 | 20:53 | S 6 | 6.00 | Fog/Mist | FEW016 SCT090 BKN250 | 79 | 75 | 88% | 83 | 29.82 | 1010.3 | ||||||
| 06 | 19:53 | S 7 | 6.00 | Mostly Cloudy with Haze | FEW014 BKN090 BKN250 | 81 | 75 | 82% | 87 | 29.79 | 1009.3 | ||||||
| 06 | 18:53 | S 10 | 6.00 | Overcast with Haze | FEW030 SCT100 OVC250 | 82 | 75 | 84.9 | 82 | 79% | 89 | 29.78 | 1008.9 | ||||
| 06 | 17:53 | S 10 | 5.00 | Overcast with Haze | SCT025 BKN080 OVC250 | 82 | 75 | 79% | 89 | 29.78 | 1008.9 | ||||||
| 06 | 16:53 | S 9 | 6.00 | Overcast with Haze | BKN022 BKN036 OVC250 | 84.9 | 75 | 72% | 93 | 29.76 | 1008.4 | ||||||
| 06 | 15:53 | S 12 | 6.00 | Overcast with Haze | SCT018 BKN050 BKN150 OVC250 | 84 | 75.9 | 77% | 93 | 29.77 | 1008.7 | ||||||
| 06 | 14:53 | S 12 | 6.00 | Overcast with Haze | BKN020 BKN150 OVC250 | 84.9 | 75.9 | 75% | 94 | 29.79 | 1009.2 | ||||||
| 06 | 13:53 | S 13 | 5.00 | Overcast with Haze | BKN020 OVC050 | 82 | 75.9 | 82% | 89 | 29.81 | 1009.9 | ||||||
| 06 | 12:53 | SW 7 | 8.00 | Overcast | BKN020 OVC250 | 82.9 | 75 | 84 | 75.9 | 77% | 90 | 29.83 | 1010.6 | ||||
| 06 | 11:53 | S 7 | 8.00 | Overcast | BKN011 BKN030 OVC250 | 81 | 75 | 82% | 87 | 29.85 | 1011.2 | ||||||
| 06 | 10:53 | S 6 | 10.00 | Overcast | BKN010 OVC020 | 79 | 75 | 88% | 83 | 29.84 | 1010.9 | ||||||
| 06 | 09:53 | S 8 | 7.00 | Overcast | SCT010 SCT030 OVC250 | 79 | 75 | 88% | 83 | 29.81 | 1010.0 | ||||||
| 06 | 08:53 | S 9 | 7.00 | Overcast | FEW008 SCT035 OVC250 | 79 | 75 | 88% | 83 | 29.81 | 1010.0 | ||||||
| 06 | 07:53 | SE 9 | 7.00 | Overcast | FEW007 SCT045 OVC250 | 77 | 75 | 94% | 78 | 29.82 | 1010.1 | ||||||
| 06 | 06:53 | S 8 | 7.00 | Overcast | OVC008 | 75.9 | 73.9 | 77 | 75.9 | 94% | 75 | 29.8 | 1009.5 | ||||
| 06 | 05:53 | S 9 | 10.00 | Overcast | FEW010 FEW015 OVC250 | 75.9 | 73.9 | 94% | 75 | 29.78 | 1009.0 | ||||||
| 06 | 04:53 | SE 7 | 10.00 | Mostly Cloudy | FEW008 SCT029 BKN045 | 75.9 | 73.9 | 94% | 75 | 29.78 | 1008.8 | ||||||
| 06 | 03:53 | S 8 | 8.00 | Mostly Cloudy | FEW012 SCT018 BKN250 | 75.9 | 73 | 91% | 76 | 29.78 | 1009.0 | ||||||
| 06 | 02:53 | S 10 | 8.00 | Mostly Cloudy | FEW014 SCT048 BKN250 | 75.9 | 73 | 91% | 76 | 29.79 | 1009.3 | ||||||
| 06 | 01:53 | S 14 | 8.00 | Overcast | FEW013 SCT018 OVC048 | 77 | 73.9 | 90% | 78 | 29.81 | 1009.9 | ||||||
| 06 | 00:53 | S 9 | 8.00 | Overcast | FEW019 OVC049 | 77 | 73.9 | 80.1 | 77 | 90% | 78 | 29.8 | 1009.7 | ||||
| 05 | 23:53 | S 12 | 8.00 | Overcast | SCT014 BKN021 OVC034 | 77 | 73 | 88% | 78 | 29.81 | 1010.0 | ||||||
| 05 | 22:53 | S 9 | 8.00 | Light Drizzle | SCT012 BKN024 OVC038 | 77 | 73 | 88% | 78 | 29.8 | 1009.6 | ||||||
| 05 | 21:53 | S 9 | 8.00 | Overcast | BKN015 OVC040 | 78.1 | 73 | 85% | 81 | 29.79 | 1009.2 | ||||||
| 05 | 20:53 | S 14 | 10.00 | Overcast | SCT014 BKN028 OVC040 | 78.1 | 73 | 85% | 81 | 29.77 | 1008.4 | ||||||
| 05 | 19:53 | S 14 | 10.00 | Overcast | SCT016 BKN024 OVC042 | 79 | 73 | 82% | 82 | 29.74 | 1007.6 | ||||||
| 05 | 18:53 | S 16 G 22 | 10.00 | Overcast | SCT018 BKN026 OVC042 | 80.1 | 73 | 82.9 | 79 | 79% | 84 | 29.74 | 1007.5 | ||||
| 05 | 17:53 | S 13 | 10.00 | Overcast | BKN026 OVC045 | 81 | 73 | 77% | 86 | 29.74 | 1007.5 | ||||||
| 05 | 16:53 | S 16 | 10.00 | Overcast | BKN024 OVC048 | 82 | 72 | 72% | 87 | 29.75 | 1007.7 | ||||||
| 05 | 15:53 | S 17 G 25 | 10.00 | Mostly Cloudy | BKN024 BKN048 | 82.9 | 72 | 70% | 88 | 29.76 | 1008.3 | ||||||
| 05 | 14:53 | S 14 G 24 | 10.00 | Overcast | SCT025 OVC045 | 82 | 73 | 74% | 87 | 29.78 | 1009.0 | ||||||
| 05 | 13:53 | SW 14 | 10.00 | Overcast | SCT020 OVC045 | 81 | 73 | 77% | 86 | 29.8 | 1009.5 | ||||||
| 05 | 12:53 | S 13 | 10.00 | Overcast | SCT020 OVC030 | 80.1 | 72 | 80.1 | 73 | 76% | 84 | 29.81 | 1009.9 | ||||
| 05 | 11:53 | S 13 | 10.00 | Overcast | SCT020 OVC040 | 79 | 72 | 79% | 82 | 29.82 | 1010.3 | ||||||
| 05 | 10:53 | S 14 | 10.00 | Overcast | BKN020 OVC035 | 79 | 71.1 | 77% | 82 | 29.81 | 1009.9 | ||||||
| 05 | 09:53 | S 12 | 10.00 | Mostly Cloudy | SCT015 BKN250 | 78.1 | 72 | 82% | 80 | 29.81 | 1009.7 | ||||||
| 05 | 08:53 | S 12 | 10.00 | Overcast | SCT015 OVC030 | 75.9 | 71.1 | 85% | 76 | 29.81 | 1009.9 | ||||||
| 05 | 07:53 | S 8 | 10.00 | Overcast | BKN025 BKN040 OVC250 | 73.9 | 70 | 88% | 29.8 | 1009.6 | |||||||
| 05 | 06:53 | S 9 | 9.00 | Overcast | BKN031 OVC250 | 73 | 69.1 | 73 | 70 | 87% | 29.8 | 1009.5 | |||||
| 05 | 05:53 | S 10 | 10.00 | Overcast | BKN031 OVC250 | 73 | 69.1 | 87% | 29.79 | 1009.3 | |||||||
| 05 | 04:53 | S 12 | 10.00 | Overcast | BKN032 OVC250 | 73 | 69.1 | 87% | 29.78 | 1008.9 | |||||||
| 05 | 03:53 | S 7 | 10.00 | Overcast | BKN035 OVC250 | 72 | 68 | 87% | 29.8 | 1009.4 | |||||||
| 05 | 02:53 | S 8 | 10.00 | Overcast | SCT034 OVC250 | 71.1 | 66.9 | 87% | 29.81 | 1009.8 | |||||||
| 05 | 01:53 | S 10 | 10.00 | Overcast | FEW030 SCT100 OVC250 | 71.1 | 66 | 84% | 29.82 | 1010.3 | |||||||
| 05 | 00:53 | S 7 | 10.00 | Overcast | FEW030 SCT100 OVC250 | 70 | 66 | 77 | 70 | 87% | 29.84 | 1010.9 | |||||
| 04 | 23:53 | S 8 | 10.00 | Mostly Cloudy | BKN250 | 71.1 | 64.9 | 81% | 29.85 | 1011.2 | |||||||
| 04 | 22:53 | S 7 | 10.00 | Mostly Cloudy | FEW036 BKN250 | 71.1 | 64.9 | 81% | 29.86 | 1011.7 | |||||||
| 04 | 21:53 | S 9 | 10.00 | Mostly Cloudy | SCT036 BKN250 | 72 | 64 | 76% | 29.87 | 1011.8 | |||||||
| 04 | 20:53 | S 8 | 10.00 | Mostly Cloudy | BKN035 BKN250 | 73 | 64 | 74% | 29.86 | 1011.5 | |||||||
| 04 | 19:53 | S 12 G 22 | 10.00 | Mostly Cloudy | SCT032 BKN250 | 73.9 | 63 | 69% | 29.85 | 1011.1 | |||||||
| 04 | 18:53 | S 13 | 10.00 | Mostly Cloudy | SCT034 BKN048 BKN250 | 77 | 64 | 82 | 75.9 | 64% | 79 | 29.85 | 1011.2 | ||||
| 04 | 17:53 | SE 15 | 10.00 | Mostly Cloudy | SCT032 BKN048 BKN250 | 77 | 63 | 62% | 79 | 29.86 | 1011.7 | ||||||
| 04 | 16:53 | S 15 | 10.00 | Mostly Cloudy | BKN038 BKN050 BKN250 | 78.1 | 63 | 60% | 80 | 29.88 | 1012.3 | ||||||
| 04 | 15:53 | S 13 | 10.00 | Mostly Cloudy | BKN042 BKN250 | 80.1 | 63 | 56% | 81 | 29.9 | 1012.9 | ||||||
| 04 | 14:53 | S 13 G 20 | 10.00 | Mostly Cloudy | BKN045 BKN250 | 80.1 | 61 | 52% | 81 | 29.92 | 1013.6 | ||||||
| 04 | 13:53 | S 10 G 21 | 10.00 | Partly Cloudy | SCT045 SCT250 | 81 | 61 | 51% | 82 | 29.94 | 1014.2 | ||||||
| 04 | 12:53 | S 13 G 20 | 10.00 | Partly Cloudy | SCT045 SCT250 | 79 | 60.1 | 80.1 | 62.1 | 52% | 80 | 29.96 | 1014.9 | ||||
| 04 | 11:53 | S 14 | 10.00 | Partly Cloudy | SCT040 SCT250 | 79 | 60.1 | 52% | 80 | 29.98 | 1015.7 | ||||||
| 04 | 10:53 | S 14 G 26 | 10.00 | Partly Cloudy | SCT038 SCT250 | 77 | 59 | 54% | 79 | 30 | 1016.4 | ||||||
| 04 | 09:53 | S 13 | 10.00 | A Few Clouds | FEW030 FEW250 | 73.9 | 59 | 60% | 30 | 1016.5 | |||||||
| Date | Time (cdt) | Wind (mph) | Vis. (mi.) | Weather | Sky Cond. | Air | Dwpt | Max. | Min. | Relative Humidity | Wind Chill (°F) | Heat Index (°F) | altimeter (in) | sea level (mb) | 1 hr | 3 hr | 6 hr |
| 6 hour | |||||||||||||||||
| Temperature (ºF) | Pressure | Precipitation (in) | |||||||||||||||